sensor_id;sensor_type;location;lat;lon;timestamp;temperature;humidity
75153;HTU21D;63734;45.218;36.708;2022-12-17T00:00:07;11.16;99.83
75153;HTU21D;63734;45.218;36.708;2022-12-17T00:02:59;11.14;100.03
75153;HTU21D;63734;45.218;36.708;2022-12-17T00:05:44;11.10;100.24
75153;HTU21D;63734;45.218;36.708;2022-12-17T00:08:29;11.09;100.31
75153;HTU21D;63734;45.218;36.708;2022-12-17T00:11:13;11.05;100.44
75153;HTU21D;63734;45.218;36.708;2022-12-17T00:13:58;11.03;100.43
75153;HTU21D;63734;45.218;36.708;2022-12-17T00:16:42;11.00;100.50
75153;HTU21D;63734;45.218;36.708;2022-12-17T00:19:27;10.98;100.55
75153;HTU21D;63734;45.218;36.708;2022-12-17T00:22:11;11.00;100.55
75153;HTU21D;63734;45.218;36.708;2022-12-17T00:24:56;11.00;100.56
75153;HTU21D;63734;45.218;36.708;2022-12-17T00:27:40;11.01;100.78
75153;HTU21D;63734;45.218;36.708;2022-12-17T00:30:25;11.01;100.99
75153;HTU21D;63734;45.218;36.708;2022-12-17T00:33:11;11.01;101.17
75153;HTU21D;63734;45.218;36.708;2022-12-17T00:35:56;11.02;101.19
75153;HTU21D;63734;45.218;36.708;2022-12-17T00:38:40;11.02;101.32
75153;HTU21D;63734;45.218;36.708;2022-12-17T00:41:25;11.04;101.58
75153;HTU21D;63734;45.218;36.708;2022-12-17T00:44:09;11.07;101.81
75153;HTU21D;63734;45.218;36.708;2022-12-17T00:46:54;11.08;101.95
75153;HTU21D;63734;45.218;36.708;2022-12-17T00:49:38;11.09;102.04
75153;HTU21D;63734;45.218;36.708;2022-12-17T00:52:24;11.09;102.09
75153;HTU21D;63734;45.218;36.708;2022-12-17T00:55:09;11.10;102.42
75153;HTU21D;63734;45.218;36.708;2022-12-17T00:57:54;11.09;102.51
75153;HTU21D;63734;45.218;36.708;2022-12-17T01:00:40;11.12;102.70
75153;HTU21D;63734;45.218;36.708;2022-12-17T01:03:25;11.14;102.73
75153;HTU21D;63734;45.218;36.708;2022-12-17T01:06:10;11.15;102.75
75153;HTU21D;63734;45.218;36.708;2022-12-17T01:08:55;11.17;102.82
75153;HTU21D;63734;45.218;36.708;2022-12-17T01:11:39;11.17;102.80
75153;HTU21D;63734;45.218;36.708;2022-12-17T01:14:24;11.16;102.86
75153;HTU21D;63734;45.218;36.708;2022-12-17T01:17:08;11.14;102.89
75153;HTU21D;63734;45.218;36.708;2022-12-17T01:19:52;11.16;102.94
75153;HTU21D;63734;45.218;36.708;2022-12-17T01:22:37;11.17;102.95
75153;HTU21D;63734;45.218;36.708;2022-12-17T01:25:21;11.22;103.10
75153;HTU21D;63734;45.218;36.708;2022-12-17T01:28:06;11.20;102.96
75153;HTU21D;63734;45.218;36.708;2022-12-17T01:30:51;11.22;103.10
75153;HTU21D;63734;45.218;36.708;2022-12-17T01:33:35;11.23;103.18
75153;HTU21D;63734;45.218;36.708;2022-12-17T01:36:20;11.25;103.29
75153;HTU21D;63734;45.218;36.708;2022-12-17T01:39:04;11.26;103.25
75153;HTU21D;63734;45.218;36.708;2022-12-17T01:41:48;11.28;103.31
75153;HTU21D;63734;45.218;36.708;2022-12-17T01:45:07;11.31;103.34
75153;HTU21D;63734;45.218;36.708;2022-12-17T01:47:57;11.31;103.46
75153;HTU21D;63734;45.218;36.708;2022-12-17T01:50:48;11.33;103.66
75153;HTU21D;63734;45.218;36.708;2022-12-17T01:53:45;11.34;103.69
75153;HTU21D;63734;45.218;36.708;2022-12-17T01:56:31;11.34;103.66
75153;HTU21D;63734;45.218;36.708;2022-12-17T01:59:18;11.37;103.71
75153;HTU21D;63734;45.218;36.708;2022-12-17T02:02:05;11.36;103.63
75153;HTU21D;63734;45.218;36.708;2022-12-17T02:04:49;11.37;103.64
75153;HTU21D;63734;45.218;36.708;2022-12-17T02:07:55;11.34;103.71
75153;HTU21D;63734;45.218;36.708;2022-12-17T02:10:49;11.34;103.68
75153;HTU21D;63734;45.218;36.708;2022-12-17T02:13:41;11.32;103.78
75153;HTU21D;63734;45.218;36.708;2022-12-17T02:16:37;11.34;103.73
75153;HTU21D;63734;45.218;36.708;2022-12-17T02:26:03;11.40;104.02
75153;HTU21D;63734;45.218;36.708;2022-12-17T02:28:52;11.44;104.08
75153;HTU21D;63734;45.218;36.708;2022-12-17T02:31:40;11.47;103.97
75153;HTU21D;63734;45.218;36.708;2022-12-17T02:34:25;11.46;103.80
75153;HTU21D;63734;45.218;36.708;2022-12-17T02:37:10;11.44;103.72
75153;HTU21D;63734;45.218;36.708;2022-12-17T02:39:54;11.47;103.73
75153;HTU21D;63734;45.218;36.708;2022-12-17T02:42:39;11.53;103.62
75153;HTU21D;63734;45.218;36.708;2022-12-17T02:45:25;11.56;103.64
75153;HTU21D;63734;45.218;36.708;2022-12-17T02:48:12;11.60;103.45
75153;HTU21D;63734;45.218;36.708;2022-12-17T02:50:57;11.63;103.47
75153;HTU21D;63734;45.218;36.708;2022-12-17T02:53:44;11.67;103.50
75153;HTU21D;63734;45.218;36.708;2022-12-17T02:56:30;11.70;103.46
75153;HTU21D;63734;45.218;36.708;2022-12-17T02:59:14;11.71;103.26
75153;HTU21D;63734;45.218;36.708;2022-12-17T03:02:06;11.72;103.44
75153;HTU21D;63734;45.218;36.708;2022-12-17T03:04:52;11.74;103.43
75153;HTU21D;63734;45.218;36.708;2022-12-17T03:07:36;11.75;103.47
75153;HTU21D;63734;45.218;36.708;2022-12-17T03:10:20;11.77;103.31
75153;HTU21D;63734;45.218;36.708;2022-12-17T03:13:04;11.77;103.27
75153;HTU21D;63734;45.218;36.708;2022-12-17T03:15:48;11.77;103.29
75153;HTU21D;63734;45.218;36.708;2022-12-17T03:18:33;11.76;103.33
75153;HTU21D;63734;45.218;36.708;2022-12-17T03:21:17;11.75;103.43
75153;HTU21D;63734;45.218;36.708;2022-12-17T03:24:01;11.78;103.63
75153;HTU21D;63734;45.218;36.708;2022-12-17T03:26:46;11.82;103.70
75153;HTU21D;63734;45.218;36.708;2022-12-17T03:29:35;11.81;103.88
75153;HTU21D;63734;45.218;36.708;2022-12-17T03:32:19;11.82;104.02
75153;HTU21D;63734;45.218;36.708;2022-12-17T03:35:03;11.82;104.13
75153;HTU21D;63734;45.218;36.708;2022-12-17T03:37:48;11.82;104.19
75153;HTU21D;63734;45.218;36.708;2022-12-17T03:40:57;11.83;104.30
75153;HTU21D;63734;45.218;36.708;2022-12-17T03:43:41;11.84;104.43
75153;HTU21D;63734;45.218;36.708;2022-12-17T03:46:26;11.86;104.70
75153;HTU21D;63734;45.218;36.708;2022-12-17T03:49:10;11.85;104.72
75153;HTU21D;63734;45.218;36.708;2022-12-17T03:51:54;11.90;104.72
75153;HTU21D;63734;45.218;36.708;2022-12-17T03:54:39;11.94;104.76
75153;HTU21D;63734;45.218;36.708;2022-12-17T03:57:23;12.01;104.94
75153;HTU21D;63734;45.218;36.708;2022-12-17T04:00:09;12.05;104.99
75153;HTU21D;63734;45.218;36.708;2022-12-17T04:02:53;12.06;105.14
75153;HTU21D;63734;45.218;36.708;2022-12-17T04:05:38;12.07;105.26
75153;HTU21D;63734;45.218;36.708;2022-12-17T04:08:22;12.10;105.43
75153;HTU21D;63734;45.218;36.708;2022-12-17T04:11:07;12.12;105.38
75153;HTU21D;63734;45.218;36.708;2022-12-17T04:13:51;12.13;105.38
75153;HTU21D;63734;45.218;36.708;2022-12-17T04:16:36;12.14;105.23
75153;HTU21D;63734;45.218;36.708;2022-12-17T04:19:20;12.15;105.21
75153;HTU21D;63734;45.218;36.708;2022-12-17T04:22:04;12.14;105.31
75153;HTU21D;63734;45.218;36.708;2022-12-17T04:24:49;12.17;105.36
75153;HTU21D;63734;45.218;36.708;2022-12-17T04:27:33;12.19;105.40
75153;HTU21D;63734;45.218;36.708;2022-12-17T04:30:18;12.21;105.43
75153;HTU21D;63734;45.218;36.708;2022-12-17T04:33:04;12.23;105.34
75153;HTU21D;63734;45.218;36.708;2022-12-17T04:35:48;12.28;105.51
75153;HTU21D;63734;45.218;36.708;2022-12-17T04:38:32;12.29;105.41
75153;HTU21D;63734;45.218;36.708;2022-12-17T04:41:17;12.31;105.51
75153;HTU21D;63734;45.218;36.708;2022-12-17T04:44:01;12.32;105.47
75153;HTU21D;63734;45.218;36.708;2022-12-17T04:46:46;12.31;105.50
75153;HTU21D;63734;45.218;36.708;2022-12-17T04:49:30;12.33;105.43
75153;HTU21D;63734;45.218;36.708;2022-12-17T04:52:14;12.33;105.65
75153;HTU21D;63734;45.218;36.708;2022-12-17T04:54:59;12.34;105.80
75153;HTU21D;63734;45.218;36.708;2022-12-17T04:57:43;12.37;105.88
75153;HTU21D;63734;45.218;36.708;2022-12-17T05:00:28;12.37;105.80
75153;HTU21D;63734;45.218;36.708;2022-12-17T05:03:14;12.38;105.72
75153;HTU21D;63734;45.218;36.708;2022-12-17T05:06:00;12.38;105.69
75153;HTU21D;63734;45.218;36.708;2022-12-17T05:09:09;12.38;105.66
75153;HTU21D;63734;45.218;36.708;2022-12-17T05:11:53;12.38;105.60
75153;HTU21D;63734;45.218;36.708;2022-12-17T05:14:37;12.41;105.77
75153;HTU21D;63734;45.218;36.708;2022-12-17T05:17:22;12.43;105.70
75153;HTU21D;63734;45.218;36.708;2022-12-17T05:20:07;12.45;105.73
75153;HTU21D;63734;45.218;36.708;2022-12-17T05:22:51;12.49;105.69
75153;HTU21D;63734;45.218;36.708;2022-12-17T05:25:35;12.51;105.62
75153;HTU21D;63734;45.218;36.708;2022-12-17T05:28:55;12.58;105.43
75153;HTU21D;63734;45.218;36.708;2022-12-17T05:32:05;12.62;105.37
75153;HTU21D;63734;45.218;36.708;2022-12-17T05:34:49;12.64;105.30
75153;HTU21D;63734;45.218;36.708;2022-12-17T05:37:33;12.65;105.30
75153;HTU21D;63734;45.218;36.708;2022-12-17T05:40:17;12.66;105.31
75153;HTU21D;63734;45.218;36.708;2022-12-17T05:43:04;12.70;105.41
75153;HTU21D;63734;45.218;36.708;2022-12-17T05:45:49;12.73;105.31
75153;HTU21D;63734;45.218;36.708;2022-12-17T05:48:34;12.76;105.35
75153;HTU21D;63734;45.218;36.708;2022-12-17T05:51:20;12.78;105.27
75153;HTU21D;63734;45.218;36.708;2022-12-17T05:54:05;12.79;105.15
75153;HTU21D;63734;45.218;36.708;2022-12-17T05:56:49;12.84;105.13
75153;HTU21D;63734;45.218;36.708;2022-12-17T05:59:34;12.86;105.08
75153;HTU21D;63734;45.218;36.708;2022-12-17T06:02:18;12.88;104.88
75153;HTU21D;63734;45.218;36.708;2022-12-17T06:05:02;12.91;104.80
75153;HTU21D;63734;45.218;36.708;2022-12-17T06:07:47;12.92;104.79
75153;HTU21D;63734;45.218;36.708;2022-12-17T06:10:58;12.95;104.62
75153;HTU21D;63734;45.218;36.708;2022-12-17T06:13:43;12.95;104.52
75153;HTU21D;63734;45.218;36.708;2022-12-17T06:16:28;12.97;104.52
75153;HTU21D;63734;45.218;36.708;2022-12-17T06:19:12;13.01;104.47
75153;HTU21D;63734;45.218;36.708;2022-12-17T06:21:56;13.02;104.38
75153;HTU21D;63734;45.218;36.708;2022-12-17T06:24:41;13.02;104.37
75153;HTU21D;63734;45.218;36.708;2022-12-17T06:27:25;13.05;104.18
75153;HTU21D;63734;45.218;36.708;2022-12-17T06:30:09;13.06;104.19
75153;HTU21D;63734;45.218;36.708;2022-12-17T06:33:10;13.06;104.14
75153;HTU21D;63734;45.218;36.708;2022-12-17T06:35:57;13.08;104.24
75153;HTU21D;63734;45.218;36.708;2022-12-17T06:38:42;13.09;104.27
75153;HTU21D;63734;45.218;36.708;2022-12-17T06:41:27;13.12;104.26
75153;HTU21D;63734;45.218;36.708;2022-12-17T06:44:11;13.15;104.02
75153;HTU21D;63734;45.218;36.708;2022-12-17T06:46:55;13.17;103.76
75153;HTU21D;63734;45.218;36.708;2022-12-17T06:49:40;13.22;103.73
75153;HTU21D;63734;45.218;36.708;2022-12-17T06:52:24;13.27;103.63
75153;HTU21D;63734;45.218;36.708;2022-12-17T06:55:09;13.31;103.55
75153;HTU21D;63734;45.218;36.708;2022-12-17T06:57:58;13.35;103.19
75153;HTU21D;63734;45.218;36.708;2022-12-17T07:00:42;13.41;102.95
75153;HTU21D;63734;45.218;36.708;2022-12-17T07:03:27;13.44;103.08
75153;HTU21D;63734;45.218;36.708;2022-12-17T07:06:28;13.50;102.76
75153;HTU21D;63734;45.218;36.708;2022-12-17T07:09:12;13.56;102.73
75153;HTU21D;63734;45.218;36.708;2022-12-17T07:11:56;13.60;102.37
75153;HTU21D;63734;45.218;36.708;2022-12-17T07:14:40;13.61;102.31
75153;HTU21D;63734;45.218;36.708;2022-12-17T07:17:25;13.63;102.39
75153;HTU21D;63734;45.218;36.708;2022-12-17T07:20:09;13.62;102.34
75153;HTU21D;63734;45.218;36.708;2022-12-17T07:22:54;13.64;102.63
75153;HTU21D;63734;45.218;36.708;2022-12-17T07:25:40;13.69;102.63
75153;HTU21D;63734;45.218;36.708;2022-12-17T07:28:24;13.74;102.45
75153;HTU21D;63734;45.218;36.708;2022-12-17T07:31:08;13.75;102.29
75153;HTU21D;63734;45.218;36.708;2022-12-17T07:33:53;13.79;102.19
75153;HTU21D;63734;45.218;36.708;2022-12-17T07:37:03;13.80;102.00
75153;HTU21D;63734;45.218;36.708;2022-12-17T07:39:48;13.81;101.86
75153;HTU21D;63734;45.218;36.708;2022-12-17T07:42:33;13.78;101.25
75153;HTU21D;63734;45.218;36.708;2022-12-17T07:45:17;13.77;101.14
75153;HTU21D;63734;45.218;36.708;2022-12-17T07:48:01;13.79;101.32
75153;HTU21D;63734;45.218;36.708;2022-12-17T07:50:49;13.80;101.22
75153;HTU21D;63734;45.218;36.708;2022-12-17T07:53:34;13.81;100.78
75153;HTU21D;63734;45.218;36.708;2022-12-17T07:56:21;13.79;100.93
75153;HTU21D;63734;45.218;36.708;2022-12-17T07:59:05;13.81;100.51
75153;HTU21D;63734;45.218;36.708;2022-12-17T08:01:50;13.78;100.54
75153;HTU21D;63734;45.218;36.708;2022-12-17T08:04:34;13.78;100.52
75153;HTU21D;63734;45.218;36.708;2022-12-17T08:07:19;13.74;100.74
75153;HTU21D;63734;45.218;36.708;2022-12-17T08:10:04;13.74;101.06
75153;HTU21D;63734;45.218;36.708;2022-12-17T08:12:56;13.77;101.37
75153;HTU21D;63734;45.218;36.708;2022-12-17T08:15:41;13.79;100.82
75153;HTU21D;63734;45.218;36.708;2022-12-17T08:18:26;13.79;100.41
75153;HTU21D;63734;45.218;36.708;2022-12-17T08:21:10;13.79;100.25
75153;HTU21D;63734;45.218;36.708;2022-12-17T08:23:54;13.80;100.03
75153;HTU21D;63734;45.218;36.708;2022-12-17T08:26:39;13.76;99.36
75153;HTU21D;63734;45.218;36.708;2022-12-17T08:29:23;13.67;99.51
75153;HTU21D;63734;45.218;36.708;2022-12-17T08:32:07;13.60;99.80
75153;HTU21D;63734;45.218;36.708;2022-12-17T08:34:52;13.56;100.38
75153;HTU21D;63734;45.218;36.708;2022-12-17T08:37:36;13.55;100.52
75153;HTU21D;63734;45.218;36.708;2022-12-17T08:40:46;13.50;100.84
75153;HTU21D;63734;45.218;36.708;2022-12-17T08:43:30;13.47;101.28
75153;HTU21D;63734;45.218;36.708;2022-12-17T08:46:14;13.43;101.82
75153;HTU21D;63734;45.218;36.708;2022-12-17T08:48:58;13.38;102.09
75153;HTU21D;63734;45.218;36.708;2022-12-17T08:51:43;13.33;102.54
75153;HTU21D;63734;45.218;36.708;2022-12-17T08:54:27;13.30;102.83
75153;HTU21D;63734;45.218;36.708;2022-12-17T08:57:11;13.29;102.99
75153;HTU21D;63734;45.218;36.708;2022-12-17T09:00:20;13.24;103.06
75153;HTU21D;63734;45.218;36.708;2022-12-17T09:03:05;13.21;103.34
75153;HTU21D;63734;45.218;36.708;2022-12-17T09:06:14;13.18;103.50
75153;HTU21D;63734;45.218;36.708;2022-12-17T09:08:58;13.15;103.59
75153;HTU21D;63734;45.218;36.708;2022-12-17T09:11:42;13.12;103.69
75153;HTU21D;63734;45.218;36.708;2022-12-17T09:14:27;13.11;103.63
75153;HTU21D;63734;45.218;36.708;2022-12-17T09:17:11;13.09;103.57
75153;HTU21D;63734;45.218;36.708;2022-12-17T09:19:55;13.09;103.66
75153;HTU21D;63734;45.218;36.708;2022-12-17T09:22:40;13.06;103.89
75153;HTU21D;63734;45.218;36.708;2022-12-17T09:25:24;13.03;104.13
75153;HTU21D;63734;45.218;36.708;2022-12-17T09:28:09;13.03;104.33
75153;HTU21D;63734;45.218;36.708;2022-12-17T09:30:58;13.02;104.29
75153;HTU21D;63734;45.218;36.708;2022-12-17T09:33:42;13.03;104.59
75153;HTU21D;63734;45.218;36.708;2022-12-17T09:36:27;13.00;104.86
75153;HTU21D;63734;45.218;36.708;2022-12-17T09:39:11;13.01;104.51
75153;HTU21D;63734;45.218;36.708;2022-12-17T09:44:56;13.01;104.48
75153;HTU21D;63734;45.218;36.708;2022-12-17T09:48:29;13.03;104.53
75153;HTU21D;63734;45.218;36.708;2022-12-17T09:50:51;12.96;104.66
75153;HTU21D;63734;45.218;36.708;2022-12-17T09:53:40;12.94;104.73
75153;HTU21D;63734;45.218;36.708;2022-12-17T09:56:27;12.93;104.66
75153;HTU21D;63734;45.218;36.708;2022-12-17T09:59:32;12.95;104.74
75153;HTU21D;63734;45.218;36.708;2022-12-17T10:02:24;12.97;104.78
75153;HTU21D;63734;45.218;36.708;2022-12-17T10:05:17;12.97;104.78
75153;HTU21D;63734;45.218;36.708;2022-12-17T10:08:03;13.00;104.84
75153;HTU21D;63734;45.218;36.708;2022-12-17T10:11:20;13.02;104.92
75153;HTU21D;63734;45.218;36.708;2022-12-17T10:14:18;13.00;104.87
75153;HTU21D;63734;45.218;36.708;2022-12-17T10:17:04;13.00;105.01
75153;HTU21D;63734;45.218;36.708;2022-12-17T10:19:50;13.00;104.88
75153;HTU21D;63734;45.218;36.708;2022-12-17T10:22:47;13.03;104.79
75153;HTU21D;63734;45.218;36.708;2022-12-17T10:25:33;13.07;104.84
75153;HTU21D;63734;45.218;36.708;2022-12-17T10:28:20;13.15;104.78
75153;HTU21D;63734;45.218;36.708;2022-12-17T10:31:17;13.18;104.60
75153;HTU21D;63734;45.218;36.708;2022-12-17T10:34:21;13.19;104.57
75153;HTU21D;63734;45.218;36.708;2022-12-17T10:37:17;13.18;104.34
75153;HTU21D;63734;45.218;36.708;2022-12-17T10:40:09;13.17;104.22
75153;HTU21D;63734;45.218;36.708;2022-12-17T10:42:58;13.20;104.15
75153;HTU21D;63734;45.218;36.708;2022-12-17T10:45:52;13.21;104.14
75153;HTU21D;63734;45.218;36.708;2022-12-17T10:48:37;13.20;103.95
75153;HTU21D;63734;45.218;36.708;2022-12-17T10:54:31;13.17;104.06
75153;HTU21D;63734;45.218;36.708;2022-12-17T11:00:25;13.20;104.03
75153;HTU21D;63734;45.218;36.708;2022-12-17T11:03:23;13.25;103.99
75153;HTU21D;63734;45.218;36.708;2022-12-17T11:06:08;13.27;104.08
75153;HTU21D;63734;45.218;36.708;2022-12-17T11:08:54;13.31;103.86
75153;HTU21D;63734;45.218;36.708;2022-12-17T11:11:39;13.37;103.92
75153;HTU21D;63734;45.218;36.708;2022-12-17T11:14:25;13.39;103.80
75153;HTU21D;63734;45.218;36.708;2022-12-17T11:17:14;13.43;103.76
75153;HTU21D;63734;45.218;36.708;2022-12-17T11:20:02;13.44;103.74
75153;HTU21D;63734;45.218;36.708;2022-12-17T11:23:14;13.46;103.68
75153;HTU21D;63734;45.218;36.708;2022-12-17T11:28:43;13.52;103.34
75153;HTU21D;63734;45.218;36.708;2022-12-17T11:31:58;13.56;103.51
75153;HTU21D;63734;45.218;36.708;2022-12-17T11:41:29;13.69;102.76
75153;HTU21D;63734;45.218;36.708;2022-12-17T11:47:51;13.68;102.22
75153;HTU21D;63734;45.218;36.708;2022-12-17T12:05:18;13.63;101.91
75153;HTU21D;63734;45.218;36.708;2022-12-17T12:08:25;13.59;102.11
75153;HTU21D;63734;45.218;36.708;2022-12-17T12:20:05;13.45;102.52
75153;HTU21D;63734;45.218;36.708;2022-12-17T12:28:44;13.36;103.17
75153;HTU21D;63734;45.218;36.708;2022-12-17T12:31:43;13.32;103.35
75153;HTU21D;63734;45.218;36.708;2022-12-17T12:34:32;13.30;103.54
75153;HTU21D;63734;45.218;36.708;2022-12-17T12:37:19;13.25;103.68
75153;HTU21D;63734;45.218;36.708;2022-12-17T12:43:03;13.21;103.89
75153;HTU21D;63734;45.218;36.708;2022-12-17T12:52:02;13.16;104.20
75153;HTU21D;63734;45.218;36.708;2022-12-17T12:54:53;13.16;104.35
75153;HTU21D;63734;45.218;36.708;2022-12-17T13:03:37;13.07;104.86
75153;HTU21D;63734;45.218;36.708;2022-12-17T13:11:47;13.01;105.18
75153;HTU21D;63734;45.218;36.708;2022-12-17T13:18:01;12.99;105.33
75153;HTU21D;63734;45.218;36.708;2022-12-17T13:25:36;12.95;105.48
75153;HTU21D;63734;45.218;36.708;2022-12-17T13:27:42;12.91;105.66
75153;HTU21D;63734;45.218;36.708;2022-12-17T13:38:44;12.85;105.71
75153;HTU21D;63734;45.218;36.708;2022-12-17T13:41:18;12.84;105.68
75153;HTU21D;63734;45.218;36.708;2022-12-17T13:43:50;12.81;105.85
75153;HTU21D;63734;45.218;36.708;2022-12-17T13:46:18;12.80;105.85
75153;HTU21D;63734;45.218;36.708;2022-12-17T13:48:52;12.78;105.91
75153;HTU21D;63734;45.218;36.708;2022-12-17T13:51:21;12.78;105.94
75153;HTU21D;63734;45.218;36.708;2022-12-17T13:53:58;12.78;105.97
75153;HTU21D;63734;45.218;36.708;2022-12-17T13:58:53;12.75;106.02
75153;HTU21D;63734;45.218;36.708;2022-12-17T14:01:19;12.74;105.95
75153;HTU21D;63734;45.218;36.708;2022-12-17T14:03:51;12.75;106.11
75153;HTU21D;63734;45.218;36.708;2022-12-17T14:06:18;12.75;106.08
75153;HTU21D;63734;45.218;36.708;2022-12-17T14:08:45;12.76;106.03
75153;HTU21D;63734;45.218;36.708;2022-12-17T14:11:12;12.76;106.06
75153;HTU21D;63734;45.218;36.708;2022-12-17T14:13:57;12.76;106.02
75153;HTU21D;63734;45.218;36.708;2022-12-17T14:16:23;12.76;105.90
75153;HTU21D;63734;45.218;36.708;2022-12-17T14:18:57;12.73;105.97
75153;HTU21D;63734;45.218;36.708;2022-12-17T14:21:25;12.72;106.11
75153;HTU21D;63734;45.218;36.708;2022-12-17T14:23:53;12.72;106.01
75153;HTU21D;63734;45.218;36.708;2022-12-17T14:26:19;12.72;105.87
75153;HTU21D;63734;45.218;36.708;2022-12-17T14:28:48;12.70;105.88
75153;HTU21D;63734;45.218;36.708;2022-12-17T14:34:05;12.69;105.88
75153;HTU21D;63734;45.218;36.708;2022-12-17T14:36:37;12.66;105.85
75153;HTU21D;63734;45.218;36.708;2022-12-17T14:39:22;12.65;105.85
75153;HTU21D;63734;45.218;36.708;2022-12-17T14:41:48;12.65;105.90
75153;HTU21D;63734;45.218;36.708;2022-12-17T14:44:33;12.65;106.04
75153;HTU21D;63734;45.218;36.708;2022-12-17T14:47:27;12.67;106.08
75153;HTU21D;63734;45.218;36.708;2022-12-17T14:50:07;12.65;106.03
75153;HTU21D;63734;45.218;36.708;2022-12-17T14:52:53;12.65;106.02
75153;HTU21D;63734;45.218;36.708;2022-12-17T14:58:26;12.64;106.00
75153;HTU21D;63734;45.218;36.708;2022-12-17T15:00:56;12.62;105.96
75153;HTU21D;63734;45.218;36.708;2022-12-17T15:03:27;12.65;105.96
75153;HTU21D;63734;45.218;36.708;2022-12-17T15:05:59;12.65;105.89
75153;HTU21D;63734;45.218;36.708;2022-12-17T15:08:30;12.64;105.89
75153;HTU21D;63734;45.218;36.708;2022-12-17T15:10:59;12.66;105.80
75153;HTU21D;63734;45.218;36.708;2022-12-17T15:13:25;12.65;105.82
75153;HTU21D;63734;45.218;36.708;2022-12-17T15:15:52;12.66;105.72
75153;HTU21D;63734;45.218;36.708;2022-12-17T15:18:19;12.66;105.67
75153;HTU21D;63734;45.218;36.708;2022-12-17T15:20:45;12.67;105.65
75153;HTU21D;63734;45.218;36.708;2022-12-17T15:23:17;12.65;105.62
75153;HTU21D;63734;45.218;36.708;2022-12-17T15:25:44;12.65;105.63
75153;HTU21D;63734;45.218;36.708;2022-12-17T15:28:35;12.64;105.60
75153;HTU21D;63734;45.218;36.708;2022-12-17T15:31:25;12.63;105.50
75153;HTU21D;63734;45.218;36.708;2022-12-17T15:33:52;12.62;105.47
75153;HTU21D;63734;45.218;36.708;2022-12-17T15:36:18;12.61;105.42
75153;HTU21D;63734;45.218;36.708;2022-12-17T15:38:43;12.61;105.43
75153;HTU21D;63734;45.218;36.708;2022-12-17T15:41:10;12.63;105.34
75153;HTU21D;63734;45.218;36.708;2022-12-17T15:43:55;12.65;105.10
75153;HTU21D;63734;45.218;36.708;2022-12-17T15:46:21;12.64;104.76
75153;HTU21D;63734;45.218;36.708;2022-12-17T15:48:47;12.62;104.82
75153;HTU21D;63734;45.218;36.708;2022-12-17T15:51:13;12.65;104.78
75153;HTU21D;63734;45.218;36.708;2022-12-17T15:53:39;12.64;104.64
75153;HTU21D;63734;45.218;36.708;2022-12-17T15:56:06;12.69;104.59
75153;HTU21D;63734;45.218;36.708;2022-12-17T15:58:35;12.67;104.47
75153;HTU21D;63734;45.218;36.708;2022-12-17T16:01:04;12.66;104.43
75153;HTU21D;63734;45.218;36.708;2022-12-17T16:03:30;12.66;104.41
75153;HTU21D;63734;45.218;36.708;2022-12-17T16:06:00;12.64;104.33
75153;HTU21D;63734;45.218;36.708;2022-12-17T16:08:26;12.66;104.28
75153;HTU21D;63734;45.218;36.708;2022-12-17T16:10:52;12.66;104.30
75153;HTU21D;63734;45.218;36.708;2022-12-17T16:13:18;12.66;104.18
75153;HTU21D;63734;45.218;36.708;2022-12-17T16:15:44;12.67;104.05
75153;HTU21D;63734;45.218;36.708;2022-12-17T16:18:12;12.69;103.95
75153;HTU21D;63734;45.218;36.708;2022-12-17T16:20:39;12.70;103.92
75153;HTU21D;63734;45.218;36.708;2022-12-17T16:23:05;12.69;103.77
75153;HTU21D;63734;45.218;36.708;2022-12-17T16:25:31;12.67;103.82
75153;HTU21D;63734;45.218;36.708;2022-12-17T16:27:58;12.67;103.76
75153;HTU21D;63734;45.218;36.708;2022-12-17T16:30:24;12.67;103.74
75153;HTU21D;63734;45.218;36.708;2022-12-17T16:32:50;12.66;103.79
75153;HTU21D;63734;45.218;36.708;2022-12-17T16:35:18;12.66;103.78
75153;HTU21D;63734;45.218;36.708;2022-12-17T16:37:44;12.65;103.82
75153;HTU21D;63734;45.218;36.708;2022-12-17T16:40:12;12.67;103.80
75153;HTU21D;63734;45.218;36.708;2022-12-17T16:42:39;12.67;103.76
75153;HTU21D;63734;45.218;36.708;2022-12-17T16:45:09;12.69;103.78
75153;HTU21D;63734;45.218;36.708;2022-12-17T16:47:35;12.66;103.86
75153;HTU21D;63734;45.218;36.708;2022-12-17T16:50:01;12.69;103.79
75153;HTU21D;63734;45.218;36.708;2022-12-17T16:52:28;12.69;103.89
75153;HTU21D;63734;45.218;36.708;2022-12-17T16:54:54;12.69;103.90
75153;HTU21D;63734;45.218;36.708;2022-12-17T16:57:21;12.67;103.83
75153;HTU21D;63734;45.218;36.708;2022-12-17T16:59:47;12.67;103.88
75153;HTU21D;63734;45.218;36.708;2022-12-17T17:02:14;12.65;103.84
75153;HTU21D;63734;45.218;36.708;2022-12-17T17:04:43;12.65;103.94
75153;HTU21D;63734;45.218;36.708;2022-12-17T17:07:09;12.65;103.99
75153;HTU21D;63734;45.218;36.708;2022-12-17T17:09:36;12.61;103.97
75153;HTU21D;63734;45.218;36.708;2022-12-17T17:12:02;12.61;104.02
75153;HTU21D;63734;45.218;36.708;2022-12-17T17:14:29;12.60;104.08
75153;HTU21D;63734;45.218;36.708;2022-12-17T17:16:56;12.60;104.13
75153;HTU21D;63734;45.218;36.708;2022-12-17T17:19:22;12.59;104.20
75153;HTU21D;63734;45.218;36.708;2022-12-17T17:21:50;12.59;104.15
75153;HTU21D;63734;45.218;36.708;2022-12-17T17:24:18;12.57;104.18
75153;HTU21D;63734;45.218;36.708;2022-12-17T17:26:46;12.56;104.28
75153;HTU21D;63734;45.218;36.708;2022-12-17T17:29:12;12.55;104.25
75153;HTU21D;63734;45.218;36.708;2022-12-17T17:31:38;12.53;104.25
75153;HTU21D;63734;45.218;36.708;2022-12-17T17:34:09;12.52;104.34
75153;HTU21D;63734;45.218;36.708;2022-12-17T17:36:35;12.51;104.34
75153;HTU21D;63734;45.218;36.708;2022-12-17T17:39:03;12.51;104.39
75153;HTU21D;63734;45.218;36.708;2022-12-17T17:41:30;12.52;104.40
75153;HTU21D;63734;45.218;36.708;2022-12-17T17:43:59;12.51;104.41
75153;HTU21D;63734;45.218;36.708;2022-12-17T17:46:29;12.50;104.42
75153;HTU21D;63734;45.218;36.708;2022-12-17T17:48:58;12.49;104.44
75153;HTU21D;63734;45.218;36.708;2022-12-17T17:51:28;12.49;104.40
75153;HTU21D;63734;45.218;36.708;2022-12-17T17:53:55;12.48;104.43
75153;HTU21D;63734;45.218;36.708;2022-12-17T17:56:26;12.48;104.46
75153;HTU21D;63734;45.218;36.708;2022-12-17T17:59:18;12.47;104.44
75153;HTU21D;63734;45.218;36.708;2022-12-17T18:01:49;12.45;104.49